Time;durP1;ratioP1;P1;durP2;ratioP2;P2;SDS_P1;SDS_P2;PMS_P1;PMS_P2;Temp;Humidity;BMP_temperature;BMP_pressure;BME280_temperature;BME280_humidity;BME280_pressure;Samples;Min_cycle;Max_cycle;Signal;HPM_P1;HPM_P2
2023/08/28 00:00:26;;;;;;;6.50;5.90;;;;;;;23.68;100.00;96792.06;1225211;75;2920658;-71
2023/08/28 00:02:59;;;;;;;6.95;5.85;;;;;;;23.78;100.00;96797.69;1225345;75;2920799;-69
2023/08/28 00:05:34;;;;;;;6.10;5.25;;;;;;;23.84;100.00;96800.19;1225108;75;2916542;-66
2023/08/28 00:08:08;;;;;;;6.00;5.50;;;;;;;23.78;100.00;96808.84;1225625;75;2921048;-69
2023/08/28 00:10:43;;;;;;;6.15;5.55;;;;;;;23.68;100.00;96810.88;1225209;75;2921369;-68
2023/08/28 00:13:16;;;;;;;5.50;5.00;;;;;;;23.72;100.00;96814.00;1225859;75;2918318;-70
2023/08/28 00:15:49;;;;;;;5.35;4.85;;;;;;;23.72;100.00;96823.09;1225637;75;2925785;-67
2023/08/28 00:18:22;;;;;;;4.45;3.90;;;;;;;23.71;100.00;96818.09;1225437;75;2920342;-70
2023/08/28 00:20:55;;;;;;;5.80;4.95;;;;;;;23.68;100.00;96810.88;1225497;75;2924849;-67
2023/08/28 00:23:27;;;;;;;4.95;4.35;;;;;;;23.67;100.00;96810.16;1226088;75;2917014;-66
2023/08/28 00:26:04;;;;;;;6.40;4.95;;;;;;;23.67;100.00;96815.00;1225711;75;2921531;-69
2023/08/28 00:28:36;;;;;;;4.30;3.90;;;;;;;23.63;100.00;96823.09;1226345;75;2909060;-69
2023/08/28 00:31:09;;;;;;;4.80;3.75;;;;;;;23.75;100.00;96819.16;1225686;75;2915890;-67
2023/08/28 00:33:41;;;;;;;4.10;3.70;;;;;;;23.67;100.00;96810.16;1225025;75;2922486;-69
2023/08/28 00:36:14;;;;;;;3.75;3.40;;;;;;;23.63;100.00;96804.25;1225658;75;2917660;-66
2023/08/28 00:38:47;;;;;;;3.95;3.65;;;;;;;23.69;100.00;96804.72;1225573;75;2918539;-67
2023/08/28 00:41:22;;;;;;;3.45;3.15;;;;;;;23.76;100.00;96808.72;1225004;75;2915243;-68
2023/08/28 00:43:54;;;;;;;3.20;2.90;;;;;;;23.70;100.00;96806.19;1225600;75;2910657;-68
2023/08/28 00:46:27;;;;;;;3.70;3.35;;;;;;;23.52;100.00;96800.00;1225845;75;2918809;-69
2023/08/28 00:49:00;;;;;;;3.25;2.90;;;;;;;23.65;100.00;96798.81;1226044;75;2924592;-68
2023/08/28 00:51:33;;;;;;;3.00;2.70;;;;;;;23.64;100.00;96808.50;1225596;75;2914831;-70
2023/08/28 00:54:07;;;;;;;3.30;3.00;;;;;;;23.48;100.00;96802.47;1226488;75;2914147;-69
2023/08/28 00:56:43;;;;;;;3.60;3.25;;;;;;;23.53;100.00;96809.09;1226063;75;2918689;-65
2023/08/28 00:59:18;;;;;;;4.90;3.60;;;;;;;23.48;100.00;96808.06;1226166;75;2913800;-67
2023/08/28 01:01:51;;;;;;;3.90;3.50;;;;;;;23.45;100.00;96811.28;1224995;75;2917939;-71
2023/08/28 01:04:24;;;;;;;3.70;3.40;;;;;;;23.49;100.00;96822.75;1225731;75;2917817;-66
2023/08/28 01:07:03;;;;;;;3.10;2.75;;;;;;;23.47;100.00;96840.09;1226683;75;2906642;-68
2023/08/28 01:09:46;;;;;;;3.85;3.30;;;;;;;23.17;100.00;96846.94;1226608;75;2913793;-68
2023/08/28 01:12:34;;;;;;;4.25;3.40;;;;;;;23.13;100.00;96852.94;1225702;75;2928758;-66
2023/08/28 01:15:14;;;;;;;4.40;4.00;;;;;;;22.88;100.00;96858.69;1225279;75;2913955;-69
2023/08/28 01:17:49;;;;;;;6.10;5.45;;;;;;;22.66;100.00;96876.47;1225956;75;2914968;-68
2023/08/28 01:20:22;;;;;;;5.35;4.85;;;;;;;23.05;100.00;96874.66;1226256;75;2908844;-67
2023/08/28 01:23:04;;;;;;;4.10;3.70;;;;;;;23.24;100.00;96870.47;1226223;75;2916066;-69
2023/08/28 01:25:40;;;;;;;5.20;4.70;;;;;;;22.89;100.00;96865.72;1226293;75;2915320;-69
2023/08/28 01:28:13;;;;;;;5.90;5.30;;;;;;;22.86;100.00;96875.25;1226469;75;2913819;-66
2023/08/28 01:30:45;;;;;;;7.65;5.85;;;;;;;22.65;100.00;96869.41;1226377;75;2911986;-67
2023/08/28 01:33:18;;;;;;;7.75;6.50;;;;;;;22.59;100.00;96877.31;1225789;75;2913453;-70
2023/08/28 01:35:58;;;;;;;6.90;6.20;;;;;;;22.45;100.00;96882.50;1225889;75;2916792;-69
2023/08/28 01:38:37;;;;;;;7.70;7.00;;;;;;;22.37;100.00;96885.38;1225895;75;2910785;-68
2023/08/28 01:41:14;;;;;;;6.75;6.15;;;;;;;22.18;100.00;96902.66;1225502;75;2921476;-68
2023/08/28 01:43:50;;;;;;;8.40;7.00;;;;;;;21.98;100.00;96914.94;1225425;75;2913969;-68
2023/08/28 01:46:24;;;;;;;8.20;7.10;;;;;;;22.04;100.00;96929.38;1225017;75;2927735;-70
2023/08/28 01:48:56;;;;;;;7.60;6.90;;;;;;;21.92;100.00;96918.69;1225568;75;2920044;-67
2023/08/28 01:51:29;;;;;;;7.40;6.70;;;;;;;21.92;100.00;96906.81;1224811;75;2921925;-68
2023/08/28 01:54:02;;;;;;;7.50;6.50;;;;;;;22.11;100.00;96907.00;1225664;75;2914941;-69
2023/08/28 01:56:37;;;;;;;8.00;6.20;;;;;;;22.05;100.00;96903.69;1226198;75;2915127;-69
2023/08/28 01:59:10;;;;;;;7.30;6.60;;;;;;;22.08;100.00;96899.03;1226126;75;2911202;-66
2023/08/28 02:01:42;;;;;;;6.55;5.85;;;;;;;22.24;100.00;96882.91;1225907;68;2914953;-67
2023/08/28 02:04:15;;;;;;;6.20;5.60;;;;;;;22.10;100.00;96896.41;1226836;75;2913641;-70
2023/08/28 02:06:47;;;;;;;7.75;6.25;;;;;;;22.03;100.00;96900.00;1225426;75;2913294;-67
2023/08/28 02:09:20;;;;;;;7.70;6.50;;;;;;;21.87;100.00;96907.78;1225043;75;2912420;-67
2023/08/28 02:11:55;;;;;;;6.55;5.95;;;;;;;22.13;100.00;96900.84;1225246;75;2914791;-65
2023/08/28 02:14:28;;;;;;;5.60;5.10;;;;;;;22.31;100.00;96904.41;1225299;75;2920098;-66
2023/08/28 02:17:00;;;;;;;6.75;4.65;;;;;;;22.20;100.00;96905.63;1225136;75;2917711;-67
2023/08/28 02:19:33;;;;;;;8.25;6.15;;;;;;;21.82;100.00;96911.56;1225546;75;2918024;-67
2023/08/28 02:22:05;;;;;;;7.05;6.35;;;;;;;21.76;100.00;96911.03;1225908;75;2912106;-67
2023/08/28 02:24:38;;;;;;;7.35;6.60;;;;;;;21.82;100.00;96917.13;1225006;75;2913814;-70
2023/08/28 02:27:13;;;;;;;6.25;5.65;;;;;;;22.09;100.00;96911.66;1225783;75;2917589;-65
2023/08/28 02:29:46;;;;;;;7.25;5.15;;;;;;;21.88;100.00;96886.97;1225031;75;2916235;-66
2023/08/28 02:32:18;;;;;;;6.45;5.85;;;;;;;21.80;100.00;96877.97;1220189;75;3093789;-69
2023/08/28 02:34:51;;;;;;;5.55;5.05;;;;;;;21.98;100.00;96868.28;1224155;75;2932939;-68
2023/08/28 02:37:24;;;;;;;5.10;4.55;;;;;;;21.85;100.00;96880.50;1225035;75;2919812;-67
2023/08/28 02:39:57;;;;;;;5.85;5.25;;;;;;;21.82;100.00;96878.13;1225013;75;2917280;-68
2023/08/28 02:42:32;;;;;;;5.55;4.80;;;;;;;21.85;100.00;96876.97;1225043;75;2918258;-68
2023/08/28 02:45:05;;;;;;;6.10;5.50;;;;;;;21.63;100.00;96873.84;1225794;75;2916479;-68
2023/08/28 02:47:37;;;;;;;7.75;5.90;;;;;;;21.60;100.00;96877.75;1226210;75;2917926;-69
2023/08/28 02:50:11;;;;;;;6.25;5.65;;;;;;;21.47;100.00;96875.25;1225668;75;2913979;-67
2023/08/28 02:52:43;;;;;;;5.50;5.00;;;;;;;21.59;100.00;96887.41;1225987;75;2910017;-68
2023/08/28 02:55:16;;;;;;;5.15;4.65;;;;;;;21.82;100.00;96881.66;1225657;75;2913288;-66
2023/08/28 02:57:51;;;;;;;6.45;5.55;;;;;;;21.47;100.00;96886.41;1225697;75;2910090;-71
2023/08/28 03:00:24;;;;;;;7.30;5.70;;;;;;;21.33;100.00;96890.75;1226595;75;2913434;-65
2023/08/28 03:02:57;;;;;;;6.55;5.50;;;;;;;21.36;100.00;96889.59;1225849;75;2912879;-66
2023/08/28 03:05:30;;;;;;;8.05;5.65;;;;;;;21.24;100.00;96876.16;1224911;75;2923185;-68
2023/08/28 03:08:02;;;;;;;5.50;5.00;;;;;;;21.45;100.00;96850.03;1226263;75;2921665;-63
2023/08/28 03:10:35;;;;;;;5.60;4.85;;;;;;;21.53;100.00;96822.09;1226146;75;2912421;-68
2023/08/28 03:13:10;;;;;;;5.00;4.50;;;;;;;21.84;100.00;96794.69;1225511;75;2914659;-64
2023/08/28 03:15:43;;;;;;;3.60;3.30;;;;;;;21.83;100.00;96807.88;1225346;75;2924521;-68
2023/08/28 03:18:15;;;;;;;3.80;3.50;;;;;;;21.72;100.00;96825.09;1224867;75;2912699;-68
2023/08/28 03:20:48;;;;;;;5.10;4.05;;;;;;;21.52;100.00;96842.91;1224833;75;2924838;-69
2023/08/28 03:23:21;;;;;;;4.40;3.80;;;;;;;21.59;100.00;96844.91;1225033;75;2917271;-68
2023/08/28 03:25:54;;;;;;;5.00;4.00;;;;;;;21.35;100.00;96835.25;1225255;75;2915866;-68
2023/08/28 03:28:29;;;;;;;4.15;3.75;;;;;;;21.64;100.00;96811.22;1225033;75;2914052;-69
2023/08/28 03:31:03;;;;;;;3.55;3.10;;;;;;;21.57;100.00;96839.88;1224617;75;2922490;-69
2023/08/28 03:33:37;;;;;;;5.10;4.45;;;;;;;21.04;100.00;96855.69;1225300;75;2913094;-69
2023/08/28 03:36:10;;;;;;;4.10;3.70;;;;;;;21.28;100.00;96853.47;1225226;75;2921481;-69
2023/08/28 03:38:43;;;;;;;4.30;3.90;;;;;;;21.54;100.00;96838.25;1225535;75;2923034;-67
2023/08/28 03:41:16;;;;;;;5.10;4.60;;;;;;;20.90;100.00;96862.84;1225480;75;2918097;-69
2023/08/28 03:43:51;;;;;;;6.45;5.00;;;;;;;20.61;100.00;96887.47;1224782;75;2926627;-70
2023/08/28 03:46:23;;;;;;;5.65;5.05;;;;;;;20.76;100.00;96895.00;1225195;75;2920997;-66
2023/08/28 03:48:56;;;;;;;4.95;4.45;;;;;;;21.04;100.00;96868.88;1225620;75;2920124;-68
2023/08/28 03:51:29;;;;;;;5.20;4.70;;;;;;;20.77;100.00;96880.53;1225063;75;2920142;-66
2023/08/28 03:54:01;;;;;;;5.15;4.65;;;;;;;20.59;100.00;96882.47;1225529;75;2918703;-70
2023/08/28 03:56:34;;;;;;;4.55;4.10;;;;;;;20.51;100.00;96892.13;1225062;83;2915959;-64
2023/08/28 03:59:09;;;;;;;5.45;4.95;;;;;;;20.50;100.00;96882.31;1225296;75;2916363;-68
2023/08/28 04:01:42;;;;;;;5.00;4.50;;;;;;;20.69;100.00;96873.53;1225008;75;2918380;-66
2023/08/28 04:04:16;;;;;;;4.20;3.80;;;;;;;20.79;100.00;96866.81;1225089;75;2923584;-69
2023/08/28 04:06:49;;;;;;;4.15;3.75;;;;;;;20.70;100.00;96877.78;1224395;75;2929704;-67
2023/08/28 04:09:21;;;;;;;3.90;3.50;;;;;;;20.87;100.00;96882.72;1224167;75;2928354;-65
2023/08/28 04:11:54;;;;;;;5.15;3.95;;;;;;;20.64;100.00;96889.13;1224894;75;2926930;-66
2023/08/28 04:14:29;;;;;;;4.45;4.00;;;;;;;20.50;100.00;96899.72;1224625;75;2920061;-69
2023/08/28 04:17:02;;;;;;;5.30;4.15;;;;;;;20.37;100.00;96905.50;1223379;75;2933598;-67
2023/08/28 04:19:35;;;;;;;5.65;4.70;;;;;;;20.34;100.00;96915.72;1224874;75;2922028;-67
2023/08/28 04:22:08;;;;;;;5.30;4.35;;;;;;;20.20;100.00;96922.78;1224062;75;2922635;-69
2023/08/28 04:24:41;;;;;;;5.40;4.50;;;;;;;20.41;100.00;96917.00;1223837;75;2922276;-67
2023/08/28 04:27:13;;;;;;;5.20;4.55;;;;;;;20.35;100.00;96922.03;1224294;75;2942862;-67
2023/08/28 04:29:49;;;;;;;4.70;4.00;;;;;;;20.49;100.00;96916.97;1225103;75;2903059;-66
2023/08/28 04:32:21;;;;;;;6.10;4.65;;;;;;;20.37;100.00;96909.06;1223202;75;2921168;-66
2023/08/28 04:34:54;;;;;;;6.20;4.45;;;;;;;20.48;100.00;96909.94;1225069;75;2921249;-66
2023/08/28 04:37:27;;;;;;;4.75;3.80;;;;;;;20.54;100.00;96916.00;1224912;75;2918852;-70
2023/08/28 04:40:00;;;;;;;5.60;4.50;;;;;;;20.61;100.00;96904.91;1224389;75;2923579;-66
2023/08/28 04:42:33;;;;;;;4.00;3.60;;;;;;;20.68;100.00;96892.25;1223644;75;2933415;-69
2023/08/28 04:45:09;;;;;;;3.20;2.90;;;;;;;20.90;100.00;96889.91;1224794;75;2922295;-66
2023/08/28 04:47:42;;;;;;;5.75;4.20;;;;;;;20.71;100.00;96873.69;1224077;75;2932859;-67
2023/08/28 04:50:15;;;;;;;4.05;3.70;;;;;;;20.81;100.00;96869.03;1224810;75;2916910;-68
2023/08/28 04:52:47;;;;;;;4.25;3.45;;;;;;;20.78;100.00;96870.91;1223390;75;2919548;-68
2023/08/28 04:55:24;;;;;;;3.65;3.25;;;;;;;20.99;100.00;96867.06;1223712;75;2921311;-69
2023/08/28 04:57:57;;;;;;;3.40;3.10;;;;;;;20.94;100.00;96868.00;1224831;75;2917745;-69
2023/08/28 05:00:32;;;;;;;3.40;3.10;;;;;;;21.03;100.00;96875.75;1224493;75;2925218;-66
2023/08/28 05:03:05;;;;;;;3.75;3.25;;;;;;;20.90;100.00;96876.00;1224945;75;2919807;-67
2023/08/28 05:05:37;;;;;;;4.80;3.95;;;;;;;20.75;100.00;96883.13;1224393;75;2924679;-66
2023/08/28 05:08:10;;;;;;;4.50;3.70;;;;;;;20.55;100.00;96898.03;1225328;75;2913478;-64
2023/08/28 05:10:43;;;;;;;4.45;3.85;;;;;;;20.46;100.00;96893.06;1223511;75;2930218;-70
2023/08/28 05:13:17;;;;;;;4.40;3.80;;;;;;;20.47;100.00;96886.97;1224760;75;2928246;-67
2023/08/28 05:15:52;;;;;;;3.60;3.30;;;;;;;20.49;100.00;96880.81;1223709;75;2923837;-70
2023/08/28 05:18:26;;;;;;;3.40;3.10;;;;;;;21.01;100.00;96870.00;1224835;75;2916331;-70
2023/08/28 05:20:58;;;;;;;5.55;3.00;;;;;;;20.69;100.00;96849.25;1224277;75;2955711;-66
2023/08/28 05:23:31;;;;;;;2.85;2.60;;;;;;;21.01;100.00;96842.19;1224597;75;2940619;-68
2023/08/28 05:26:04;;;;;;;3.85;2.70;;;;;;;21.13;100.00;96839.69;1224824;75;2924046;-67
2023/08/28 05:28:38;;;;;;;3.30;3.00;;;;;;;21.02;100.00;96846.44;1225593;75;2918602;-66
2023/08/28 05:31:13;;;;;;;2.55;2.35;;;;;;;21.09;100.00;96847.69;1224516;75;2920439;-66
2023/08/28 05:33:46;;;;;;;3.55;2.45;;;;;;;21.10;100.00;96854.75;1224384;75;2919794;-70
2023/08/28 05:36:18;;;;;;;3.25;2.50;;;;;;;21.02;100.00;96860.34;1223663;75;2926693;-67
2023/08/28 05:38:51;;;;;;;2.25;2.05;;;;;;;21.33;100.00;96854.56;1224020;75;2928289;-67
2023/08/28 05:41:24;;;;;;;2.20;2.00;;;;;;;21.43;100.00;96858.22;1224349;75;2926746;-68
2023/08/28 05:43:57;;;;;;;2.15;1.75;;;;;;;21.56;100.00;96854.41;1224180;75;2925555;-67
2023/08/28 05:46:33;;;;;;;1.50;1.40;;;;;;;21.60;100.00;96851.94;1223968;75;2926293;-71
2023/08/28 05:49:07;;;;;;;2.00;1.60;;;;;;;21.49;100.00;96856.69;1224848;75;2926247;-65
2023/08/28 05:51:40;;;;;;;2.35;1.80;;;;;;;21.31;100.00;96857.16;1224626;75;2921155;-65
2023/08/28 05:54:13;;;;;;;2.25;1.95;;;;;;;21.51;100.00;96852.59;1224788;75;2919115;-65
2023/08/28 05:56:45;;;;;;;2.30;1.65;;;;;;;21.67;100.00;96854.69;1224374;75;2925377;-69
2023/08/28 05:59:18;;;;;;;2.80;2.15;;;;;;;21.19;100.00;96842.97;1223942;75;2921416;-65
2023/08/28 06:01:53;;;;;;;5.15;2.60;;;;;;;21.28;100.00;96850.69;1223559;75;2925920;-67
2023/08/28 06:04:26;;;;;;;2.85;2.10;;;;;;;21.15;100.00;96856.56;1224664;75;2932398;-68
2023/08/28 06:06:59;;;;;;;3.75;2.50;;;;;;;20.96;100.00;96862.63;1223828;75;2926248;-67
2023/08/28 06:09:32;;;;;;;3.35;2.55;;;;;;;20.98;100.00;96865.59;1223471;75;2926601;-67
2023/08/28 06:12:04;;;;;;;2.80;2.50;;;;;;;20.89;100.00;96874.53;1224079;75;2919830;-69
2023/08/28 06:14:37;;;;;;;3.50;2.35;;;;;;;20.87;100.00;96872.31;1224885;75;2924760;-67
2023/08/28 06:17:12;;;;;;;2.50;2.30;;;;;;;21.13;100.00;96862.69;1224046;75;2954906;-67
2023/08/28 06:19:45;;;;;;;2.85;2.35;;;;;;;20.92;100.00;96870.63;1224486;75;2929043;-70
2023/08/28 06:22:18;;;;;;;2.95;2.30;;;;;;;20.85;100.00;96861.75;1224328;75;2927368;-67
2023/08/28 06:24:52;;;;;;;4.30;2.50;;;;;;;20.79;100.00;96843.81;1222358;75;2989205;-66
2023/08/28 06:27:25;;;;;;;5.00;2.80;;;;;;;21.04;100.00;96844.56;1224505;75;2922797;-67
2023/08/28 06:29:57;;;;;;;2.95;2.55;;;;;;;21.38;100.00;96822.97;1224885;75;2930216;-68
2023/08/28 06:32:33;;;;;;;2.90;2.00;;;;;;;21.18;100.00;96831.09;1224405;75;2922173;-64
2023/08/28 06:35:05;;;;;;;2.70;2.40;;;;;;;21.40;100.00;96832.25;1224983;75;2921464;-67
2023/08/28 06:37:38;;;;;;;3.05;2.35;;;;;;;21.17;100.00;96838.00;1224372;75;2924572;-66
2023/08/28 06:40:13;;;;;;;3.60;2.45;;;;;;;21.24;100.00;96842.75;1224545;75;2926377;-69
2023/08/28 06:42:45;;;;;;;3.65;2.55;;;;;;;21.57;100.00;96830.81;1224992;75;2927119;-68
2023/08/28 06:45:18;;;;;;;3.75;2.20;;;;;;;21.72;100.00;96832.69;1224990;75;2918724;-66
2023/08/28 06:47:53;;;;;;;3.50;2.45;;;;;;;21.60;100.00;96822.06;1224940;75;2923031;-67
2023/08/28 06:50:26;;;;;;;2.30;1.85;;;;;;;22.07;100.00;96814.66;1223977;75;2928241;-65
2023/08/28 06:52:58;;;;;;;2.40;1.90;;;;;;;21.54;100.00;96815.97;1224792;75;2930257;-69
2023/08/28 06:55:32;;;;;;;2.30;1.90;;;;;;;21.52;100.00;96813.03;1223374;75;2929057;-69
2023/08/28 06:58:05;;;;;;;4.15;2.45;;;;;;;21.47;100.00;96817.50;1224624;75;2935859;-70
2023/08/28 07:00:38;;;;;;;4.90;2.35;;;;;;;21.56;100.00;96826.56;1225181;75;2926074;-68
2023/08/28 07:03:13;;;;;;;2.50;2.30;;;;;;;21.70;100.00;96822.16;1224682;75;2923720;-68
2023/08/28 07:05:46;;;;;;;3.15;2.35;;;;;;;21.77;100.00;96823.38;1225032;75;2920103;-68
2023/08/28 07:08:18;;;;;;;2.70;2.25;;;;;;;21.94;100.00;96809.44;1225248;75;2922822;-69
2023/08/28 07:10:51;;;;;;;1.80;1.60;;;;;;;21.92;100.00;96814.84;1224827;75;2922111;-71
2023/08/28 07:13:23;;;;;;;3.15;2.55;;;;;;;21.78;100.00;96814.44;1225125;75;2926220;-67
2023/08/28 07:15:59;;;;;;;2.80;2.05;;;;;;;22.18;100.00;96815.50;1225597;75;2918985;-66
2023/08/28 07:18:35;;;;;;;2.40;1.90;;;;;;;22.09;100.00;96811.31;1224687;75;2921731;-68
2023/08/28 07:21:07;;;;;;;2.25;1.70;;;;;;;21.96;100.00;96800.50;1225459;75;2919339;-70
2023/08/28 07:23:40;;;;;;;1.90;1.60;;;;;;;22.03;100.00;96789.28;1224159;75;2926396;-64
2023/08/28 07:26:12;;;;;;;2.35;2.00;;;;;;;21.89;100.00;96799.28;1224591;75;2924864;-70
2023/08/28 07:28:46;;;;;;;2.20;1.70;;;;;;;21.76;100.00;96805.91;1224113;75;2926190;-68
2023/08/28 07:31:19;;;;;;;2.05;1.75;;;;;;;21.73;100.00;96801.50;1224629;75;2923827;-69
2023/08/28 07:33:54;;;;;;;3.50;1.90;;;;;;;21.67;100.00;96795.41;1224193;75;2925406;-70
2023/08/28 07:36:27;;;;;;;3.15;2.20;;;;;;;21.63;100.00;96795.84;1224390;75;2918801;-68
2023/08/28 07:39:00;;;;;;;3.15;2.10;;;;;;;21.80;100.00;96797.16;1224422;75;2921629;-67
2023/08/28 07:41:32;;;;;;;2.30;1.80;;;;;;;21.58;100.00;96785.69;1224959;75;2923363;-67
2023/08/28 07:44:05;;;;;;;2.85;1.70;;;;;;;21.43;100.00;96808.84;1225892;75;2923307;-69
2023/08/28 07:46:37;;;;;;;2.05;1.80;;;;;;;21.81;100.00;96804.94;1225131;75;2926869;-68
2023/08/28 07:49:13;;;;;;;3.60;2.00;;;;;;;21.40;100.00;96809.25;1225027;75;2921543;-68
2023/08/28 07:51:45;;;;;;;3.50;1.70;;;;;;;21.69;100.00;96818.63;1224625;75;2928040;-68
2023/08/28 07:54:18;;;;;;;2.20;1.85;;;;;;;21.73;100.00;96809.13;1224639;75;2923035;-70
2023/08/28 07:56:50;;;;;;;3.05;1.65;;;;;;;21.69;100.00;96826.22;1224135;75;2944683;-72
2023/08/28 07:59:23;;;;;;;1.90;1.65;;;;;;;21.69;100.00;96829.00;1224656;75;2926811;-68
2023/08/28 08:01:56;;;;;;;2.75;1.80;;;;;;;21.35;100.00;96827.63;1225664;75;2918940;-68
2023/08/28 08:04:31;;;;;;;3.45;2.00;;;;;;;21.24;100.00;96826.06;1225271;75;2914678;-68
2023/08/28 08:07:05;;;;;;;2.50;1.70;;;;;;;21.26;100.00;96828.25;1225391;75;2919579;-67
2023/08/28 08:09:37;;;;;;;2.10;1.80;;;;;;;21.56;100.00;96832.13;1225035;75;2922286;-67
2023/08/28 08:12:11;;;;;;;4.10;2.90;;;;;;;21.36;100.00;96836.72;1224501;75;2918551;-68
2023/08/28 08:14:44;;;;;;;5.30;3.55;;;;;;;21.30;100.00;96828.59;1226070;75;2920137;-69
2023/08/28 08:17:16;;;;;;;4.55;3.10;;;;;;;21.53;100.00;96817.28;1224648;75;2920815;-67
2023/08/28 08:19:52;;;;;;;3.85;2.65;;;;;;;21.74;100.00;96814.09;1224453;75;2922593;-65
2023/08/28 08:22:24;;;;;;;3.55;2.30;;;;;;;22.25;100.00;96814.69;1225204;75;2915635;-67
2023/08/28 08:24:57;;;;;;;2.95;2.15;;;;;;;22.32;100.00;96814.59;1225332;75;2924988;-69
2023/08/28 08:27:30;;;;;;;2.15;1.85;;;;;;;22.56;97.47;96803.84;1224671;75;2924168;-68
2023/08/28 08:30:02;;;;;;;5.90;2.60;;;;;;;22.48;97.94;96812.34;1225427;75;2916803;-70
2023/08/28 08:32:35;;;;;;;3.10;2.10;;;;;;;23.20;94.49;96801.09;1225390;75;2921193;-71
2023/08/28 08:35:12;;;;;;;2.70;1.85;;;;;;;23.56;90.07;96796.75;1225377;75;2922419;-67
2023/08/28 08:37:46;;;;;;;3.45;2.50;;;;;;;23.96;88.93;96782.25;1224481;75;2920908;-64
2023/08/28 08:40:27;;;;;;;3.05;2.10;;;;;;;24.30;85.82;96763.66;1219436;67;3211686;-69
2023/08/28 08:42:59;;;;;;;4.00;2.40;;;;;;;24.35;83.35;96771.00;1223795;75;2923681;-66
2023/08/28 08:45:32;;;;;;;4.50;2.55;;;;;;;23.58;86.96;96780.13;1224364;75;2920169;-67
2023/08/28 08:48:09;;;;;;;3.20;2.15;;;;;;;23.75;84.71;96771.66;1224864;75;2921144;-68
2023/08/28 08:50:45;;;;;;;3.80;2.45;;;;;;;23.20;90.21;96764.06;1224420;75;2926918;-70
2023/08/28 08:53:28;;;;;;;3.85;2.30;;;;;;;24.10;89.23;96768.56;1224455;75;2924759;-67
2023/08/28 08:56:08;;;;;;;5.20;3.10;;;;;;;23.91;87.04;96757.38;1222815;75;2923289;-67
2023/08/28 08:58:41;;;;;;;4.05;2.50;;;;;;;23.85;85.83;96752.06;1225199;75;2925586;-67
2023/08/28 09:01:15;;;;;;;4.20;2.70;;;;;;;23.51;87.72;96756.59;1225704;75;2926462;-67
2023/08/28 09:03:48;;;;;;;3.30;2.80;;;;;;;24.02;83.94;96762.38;1224904;75;2922768;-67
2023/08/28 09:06:25;;;;;;;4.15;2.70;;;;;;;23.72;85.81;96753.25;1224929;75;2924270;-64
2023/08/28 09:08:58;;;;;;;3.50;2.30;;;;;;;24.07;83.69;96750.16;1225508;75;2923511;-67
2023/08/28 09:11:31;;;;;;;3.20;2.40;;;;;;;23.81;85.77;96740.59;1225139;75;2923337;-69
2023/08/28 09:14:04;;;;;;;3.15;2.50;;;;;;;24.26;82.38;96751.44;1225417;67;2918227;-67
2023/08/28 09:16:37;;;;;;;2.35;1.90;;;;;;;24.57;81.44;96763.47;1224169;75;2920701;-65
2023/08/28 09:19:11;;;;;;;3.70;2.60;;;;;;;23.47;88.28;96755.56;1224586;75;2922413;-68
2023/08/28 09:21:49;;;;;;;3.60;2.60;;;;;;;24.00;83.60;96749.00;1222483;75;2960252;-66
2023/08/28 09:24:25;;;;;;;3.10;2.60;;;;;;;24.09;81.91;96755.88;1224828;75;2929993;-69
2023/08/28 09:26:55;;;;;;;3.05;2.50;;;;;;;24.66;78.73;96761.97;1225280;75;2917209;-68
2023/08/28 09:29:28;;;;;;;4.50;2.40;;;;;;;24.85;77.35;96747.88;1225400;75;2920113;-67
2023/08/28 09:32:06;;;;;;;4.35;2.80;;;;;;;24.79;77.59;96743.94;1225301;75;2921573;-66
2023/08/28 09:34:43;;;;;;;3.00;2.10;;;;;;;24.94;76.96;96732.34;1225302;75;2918094;-65
2023/08/28 09:37:18;;;;;;;4.60;3.15;;;;;;;23.93;82.06;96727.53;1225494;75;2911622;-66
2023/08/28 09:40:00;;;;;;;3.60;2.40;;;;;;;25.07;76.38;96725.53;1225273;75;2919328;-66
2023/08/28 09:42:31;;;;;;;3.20;2.20;;;;;;;24.87;78.52;96727.72;1224741;75;2922692;-65
2023/08/28 09:45:10;;;;;;;3.25;2.50;;;;;;;24.45;79.30;96717.81;1224702;75;2923192;-68
2023/08/28 09:47:43;;;;;;;3.65;2.45;;;;;;;25.12;76.28;96707.66;1224775;75;2920189;-67
2023/08/28 09:50:15;;;;;;;3.90;2.55;;;;;;;24.48;76.67;96711.06;1225572;75;2928382;-69
2023/08/28 09:52:51;;;;;;;3.60;2.60;;;;;;;24.37;79.07;96706.09;1225016;75;2922830;-72
2023/08/28 09:55:24;;;;;;;3.40;2.20;;;;;;;24.32;78.52;96705.06;1224360;75;2917293;-67
2023/08/28 09:58:00;;;;;;;3.55;2.20;;;;;;;24.82;76.38;96709.13;1223783;75;2925467;-68
2023/08/28 10:00:32;;;;;;;3.20;2.35;;;;;;;25.25;73.77;96693.13;1224911;75;2921094;-65
2023/08/28 10:03:05;;;;;;;3.65;2.55;;;;;;;25.02;74.80;96685.31;1225640;75;2921422;-65
2023/08/28 10:05:41;;;;;;;3.05;2.35;;;;;;;25.03;73.52;96672.03;1225180;75;2923194;-67
2023/08/28 10:08:17;;;;;;;3.50;2.50;;;;;;;25.79;72.30;96654.50;1225403;75;2925010;-66
2023/08/28 10:10:54;;;;;;;3.15;2.50;;;;;;;25.39;71.72;96637.31;1224228;75;2917689;-66
2023/08/28 10:13:26;;;;;;;3.40;2.70;;;;;;;25.90;72.67;96625.78;1224821;75;2919524;-67
2023/08/28 10:16:07;;;;;;;3.55;2.65;;;;;;;27.10;67.88;96620.25;1224386;75;2924923;-67
2023/08/28 10:18:43;;;;;;;3.00;2.30;;;;;;;26.23;68.06;96614.47;1224781;75;2920780;-66
2023/08/28 10:21:16;;;;;;;3.10;2.35;;;;;;;26.83;65.67;96607.50;1225617;75;2917738;-66
2023/08/28 10:23:53;;;;;;;2.25;1.90;;;;;;;28.00;61.07;96585.91;1223233;75;2925367;-65
2023/08/28 10:26:28;;;;;;;2.85;2.35;;;;;;;26.44;65.09;96576.44;1224999;75;2928572;-71
2023/08/28 10:29:05;;;;;;;3.15;2.40;;;;;;;27.73;64.36;96566.84;1224294;75;2919414;-67
2023/08/28 10:31:38;;;;;;;3.00;2.25;;;;;;;28.15;61.08;96559.97;1224065;75;2927166;-66
2023/08/28 10:34:12;;;;;;;3.60;1.85;;;;;;;28.74;60.72;96545.34;1224995;75;2919187;-66
2023/08/28 10:36:46;;;;;;;1.70;1.60;;;;;;;29.48;59.58;96534.78;1224638;75;2917599;-67
2023/08/28 10:39:22;;;;;;;2.95;2.00;;;;;;;29.80;57.42;96517.91;1224426;75;2916812;-69
2023/08/28 10:41:54;;;;;;;3.00;2.05;;;;;;;28.42;59.91;96514.19;1225374;75;2911060;-66
2023/08/28 10:44:28;;;;;;;2.35;1.75;;;;;;;28.44;59.89;96516.38;1225420;75;2917427;-66
2023/08/28 10:47:01;;;;;;;3.55;1.60;;;;;;;29.03;57.91;96519.31;1224671;75;2922872;-66
2023/08/28 10:49:36;;;;;;;3.60;1.50;;;;;;;28.88;58.18;96514.34;1224398;75;2917590;-68
2023/08/28 10:52:10;;;;;;;2.50;1.90;;;;;;;28.02;60.32;96510.03;1224419;75;2926065;-68
2023/08/28 10:54:47;;;;;;;2.35;1.65;;;;;;;27.56;63.10;96515.34;1224533;75;2927135;-67
2023/08/28 10:57:27;;;;;;;3.90;2.80;;;;;;;26.11;68.17;96515.56;1224273;75;2919778;-68
2023/08/28 11:00:17;;;;;;;2.80;2.00;;;;;;;26.17;67.96;96512.38;1224449;75;2925362;-70
2023/08/28 11:03:14;;;;;;;4.75;2.05;;;;;;;26.53;67.20;96508.19;1225077;75;2922100;-68
2023/08/28 11:05:48;;;;;;;2.65;2.20;;;;;;;26.01;69.92;96503.75;1224905;75;2925222;-68
2023/08/28 11:08:20;;;;;;;3.45;2.25;;;;;;;26.16;71.62;96513.75;1224419;75;2928098;-67
2023/08/28 11:11:22;;;;;;;3.55;2.25;;;;;;;26.18;69.39;96531.44;1224336;75;2925883;-68
2023/08/28 11:14:04;;;;;;;4.00;2.75;;;;;;;26.00;69.98;96547.16;1225707;75;2921536;-68
2023/08/28 11:16:42;;;;;;;2.10;1.90;;;;;;;26.41;68.06;96555.19;1225369;75;2926197;-67
2023/08/28 11:19:15;;;;;;;2.30;1.80;;;;;;;26.30;68.82;96548.97;1224719;75;2918166;-66
2023/08/28 11:21:49;;;;;;;3.15;2.00;;;;;;;25.60;72.66;96566.47;1224329;75;2919334;-68
2023/08/28 11:24:28;;;;;;;2.90;2.10;;;;;;;25.33;72.18;96547.28;1223814;75;2922607;-66
2023/08/28 11:27:04;;;;;;;2.60;1.90;;;;;;;26.03;70.51;96540.34;1223699;75;2926958;-67
2023/08/28 11:29:40;;;;;;;2.10;1.90;;;;;;;25.84;70.61;96539.19;1224152;75;2923654;-65
2023/08/28 11:32:14;;;;;;;4.20;1.90;;;;;;;26.10;68.09;96536.56;1224200;75;2923403;-67
2023/08/28 11:34:46;;;;;;;3.50;2.10;;;;;;;26.46;65.86;96528.84;1224745;75;2924751;-66
2023/08/28 11:37:36;;;;;;;6.60;3.90;;;;;;;26.26;65.44;96523.47;1224037;75;2924098;-68
2023/08/28 11:40:11;;;;;;;3.70;2.10;;;;;;;26.12;64.09;96514.22;1223853;75;2927183;-65
2023/08/28 11:42:48;;;;;;;2.05;1.65;;;;;;;26.09;64.76;96515.44;1225597;75;2919867;-65